aviador You're here:

KMMV Decoded Metar

MACKMINNVILLE in OR, USA
Report Time2018-05-21 23:53:00
UTC Time2018-05-22 00:08:38
Flight Rules vfr VFR
Wind010° at 06 kt
W.Decomp.*RWY 35: 6.0 kt HW 0.1 kt RCW
RWY 04: 3.9 kt HW 4.5 kt LCW
W.Rank010° ranks 12
Current wind is below 010° avg. (6.7)
Visibility9999 m
Phenomena:N/A
Clouds:N/A
Expected CloudBase > 5,200 ft AGL from Temp-Dew spread
CeilingNone
Temp23°C (ISA +8)
Dew Point10°C (44% RH)
AAT20.9°C
QNH1014 hPa
Density Alt1,257 ft
Elevation157 ft
Report Wrong Elevation
Raw Report
KMMV 212353Z AUTO 01006KT 10SM CLR 23/10 A2994 RMK AO2 SLP140
T02330100 10233 20150 56020=

Extra information for KMMV:More info

Metar Taf Metar & Taf Last 4 Metars F.Rules Stats Wind Profile Meteogram Temp Stats Airport Information Weather charts Add Link Nearby VenuesMetar ALERT Operation Metar Decoded Social comments

AIRNAV info for KMMV